»·PEaware :: N733DN KTOA-KSBA

N733DN :: KTOA-KSBA

FLIGHT INFORMATION

Flight Status: Arrived
Operator: Privately registered:
United States
More flights under this callsign
Pilot: Max S. (25266)
Aircraft: BEECH AIRCRAFT BARON
(BE58)
More flights by this aircraft type
Origin: KTOA Zamperini
United States
Destination: KSBA Santa Barbara Mun
United States
More flights between these airports :: More routes between these airports
Route: LAX170 LIMBO V8 WILMA V25 LAX V299 VTU VTU282/26 KWANG
File this flight plan on PilotEdge
Remarks: TEC SCTP28
Altitude:
(Current/Filed)
6,000ft
Speed:
(Current/Filed)
150kts
Departed: 22-Jul-20 04:57 PM
Arrived: 22-Jul-20 05:33 PM
Distance/Time
Traveled:
84nm/0:36
Distance/Time
To Go:
Arrived

Flight Plot

Page will automatically refresh every two minutes.


Map Options




Map Legend


Flown Route
Filed Route
Departure Airport
Arrival Airport
Navaid (VOR, NDB)
Fix

Horizontal Profiles

Position Reports

Time Latitude Longitude Heading Altitude Ground
Speed
22-Jul-20 16:27 33.803347 -118.344052 39 102ft 0kts
22-Jul-20 16:28 33.803347 -118.344052 39 102ft 0kts
22-Jul-20 16:29 33.803347 -118.344052 39 102ft 0kts
22-Jul-20 16:30 33.803347 -118.344052 39 102ft 0kts
22-Jul-20 16:31 33.803347 -118.344052 39 102ft 0kts
22-Jul-20 16:32 33.803347 -118.344052 39 102ft 0kts
22-Jul-20 16:33 33.803347 -118.344052 39 102ft 0kts
22-Jul-20 16:34 33.803347 -118.344052 39 102ft 0kts
22-Jul-20 16:35 33.803347 -118.344052 39 102ft 0kts
22-Jul-20 16:36 33.803347 -118.344052 39 102ft 0kts
22-Jul-20 16:37 33.803347 -118.344052 39 102ft 0kts
22-Jul-20 16:38 33.803347 -118.344052 39 102ft 0kts
22-Jul-20 16:39 33.803347 -118.344052 39 102ft 0kts
22-Jul-20 16:40 33.803347 -118.344052 39 102ft 0kts
22-Jul-20 16:41 33.803347 -118.344052 39 102ft 0kts
22-Jul-20 16:42 33.803347 -118.344052 39 102ft 0kts
22-Jul-20 16:43 33.803347 -118.344052 39 102ft 0kts
22-Jul-20 16:44 33.803347 -118.344052 39 102ft 0kts
22-Jul-20 16:45 33.803347 -118.344052 39 102ft 0kts
22-Jul-20 16:46 33.803347 -118.344052 39 102ft 0kts
22-Jul-20 16:47 33.803347 -118.344052 39 102ft 0kts
22-Jul-20 16:48 33.803347 -118.344052 39 102ft 0kts
22-Jul-20 16:49 33.803347 -118.344052 39 102ft 0kts
22-Jul-20 16:50 33.803010 -118.343258 128 103ft 8kts
22-Jul-20 16:51 33.801916 -118.340383 129 102ft 11kts
22-Jul-20 16:52 33.799911 -118.337342 129 104ft 12kts
22-Jul-20 16:53 33.798269 -118.334050 37 104ft 12kts
22-Jul-20 16:54 33.799079 -118.333296 37 101ft 0kts
22-Jul-20 16:55 33.799079 -118.333296 37 101ft 0kts
22-Jul-20 16:56 33.806178 -118.342421 311 169ft 107kts
22-Jul-20 16:57 33.826637 -118.366596 304 1590ft 104kts
22-Jul-20 16:59 33.846284 -118.393093 315 2846ft 109kts
22-Jul-20 17:00 33.866963 -118.420350 314 3927ft 113kts
22-Jul-20 17:01 33.898906 -118.426049 354 4889ft 123kts
22-Jul-20 17:02 33.931298 -118.433490 302 5802ft 113kts
22-Jul-20 17:03 33.945958 -118.474864 287 6049ft 149kts
22-Jul-20 17:04 33.962213 -118.523828 285 6172ft 163kts
22-Jul-20 17:05 33.978959 -118.577830 288 6015ft 171kts
22-Jul-20 17:06 33.998016 -118.631988 290 5876ft 174kts
22-Jul-20 17:07 34.015384 -118.684726 288 5976ft 171kts
22-Jul-20 17:08 34.033417 -118.737795 286 6028ft 170kts
22-Jul-20 17:09 34.049608 -118.791901 286 6045ft 171kts
22-Jul-20 17:10 34.064410 -118.846224 284 6029ft 170kts
22-Jul-20 17:11 34.081020 -118.899621 284 6025ft 168kts
22-Jul-20 17:12 34.094921 -118.953215 289 6012ft 167kts
22-Jul-20 17:12 34.106883 -118.997352 287 6014ft 166kts
22-Jul-20 17:14 34.124896 -119.058634 294 6014ft 166kts
22-Jul-20 17:15 34.147620 -119.107118 301 5988ft 167kts
22-Jul-20 17:15 34.167025 -119.147269 298 5969ft 165kts
22-Jul-20 17:16 34.189425 -119.195362 297 5980ft 164kts
22-Jul-20 17:17 34.210675 -119.244299 296 5991ft 163kts
22-Jul-20 17:19 34.235258 -119.300905 296 6005ft 163kts
22-Jul-20 17:19 34.251730 -119.341976 296 5937ft 161kts
22-Jul-20 17:20 34.274501 -119.389579 301 5365ft 164kts
22-Jul-20 17:21 34.296473 -119.437580 294 4616ft 161kts
22-Jul-20 17:22 34.316555 -119.485849 294 3953ft 158kts
22-Jul-20 17:23 34.332323 -119.531573 291 3944ft 139kts
22-Jul-20 17:24 34.345133 -119.576176 290 3451ft 129kts
22-Jul-20 17:25 34.358297 -119.615996 291 2773ft 125kts
22-Jul-20 17:26 34.371522 -119.655283 291 2193ft 124kts
22-Jul-20 17:27 34.384752 -119.693602 292 2113ft 123kts
22-Jul-20 17:28 34.399264 -119.731412 294 1810ft 126kts
22-Jul-20 17:29 34.412224 -119.769889 294 1212ft 122kts
22-Jul-20 17:30 34.426704 -119.806238 292 658ft 105kts
22-Jul-20 17:31 34.427887 -119.836397 269 19ft 80kts
22-Jul-20 17:32 34.428596 -119.845479 58 14ft 0kts

Navigation Log

Ident Type
Flight plan parsing failed, navigation log unavailable